Current Weather

Heathrow

London, United Kingdom (EGLL)

Report from: Tuesday, June 18, 2024 1:50 PM BST
Current time: Tuesday, June 18, 2024 2:21 PM BST

Nearby weather – Weather history – Daily summaries
Weather forecast

Temperature21.0°C (69.8°F)
Dew point10.0°C (50.0°F)
Winds 6 kts (3.1 m/s, 6.9 mph) Vrb
Winds variableWinds variable from North (350°) to East-Northeast (60°)
Visibility6.2 mi. (10 km)
Clouds Few clouds 4,600 ft. (1,402 m)
Altimeter29.94 in.Hg (1014 mB)
Relative humidity49 %
Density altitude850 ft. (259 m)
Remarks Fully automated report
No significant changes expected in the next two hours
Flight conditions Visual Meteorological Conditions
Raw dataEGLL 181250Z AUTO 03006KT 350V060 9999 FEW046 21/10 Q1014 NOSIG
An error has occurred. This application may no longer respond until reloaded. Reload 🗙